Time;durP1;ratioP1;P1;durP2;ratioP2;P2;SDS_P1;SDS_P2;PMS_P1;PMS_P2;Temp;Humidity;BMP_temperature;BMP_pressure;BME280_temperature;BME280_humidity;BME280_pressure;Samples;Min_cycle;Max_cycle;Signal;HPM_P1;HPM_P2
2022/01/12 00:01:42;;;;;;;18.27;6.30;;;;;;;-149.78;100.00;50577.06;5073443;28;20056;-69
2022/01/12 00:04:12;;;;;;;18.10;4.63;;;;;;;-149.78;100.00;50571.19;5055465;28;20114;-69
2022/01/12 00:06:37;;;;;;;13.98;2.60;;;;;;;-149.78;100.00;50530.13;5073039;28;20060;-69
2022/01/12 00:09:07;;;;;;;15.30;3.25;;;;;;;-149.78;100.00;50545.75;5072719;28;20137;-64
2022/01/12 00:11:37;;;;;;;13.95;2.42;;;;;;;-149.78;100.00;50610.31;5072746;28;20040;-65
2022/01/12 00:14:03;;;;;;;14.63;3.60;;;;;;;-149.78;100.00;50565.31;5072784;28;20533;-65
2022/01/12 00:16:29;;;;;;;8.98;2.30;;;;;;;-149.78;100.00;50586.84;5072749;28;20086;-64
2022/01/12 00:18:56;;;;;;;15.40;2.97;;;;;;;-149.78;100.00;50584.88;5072097;28;20040;-64
2022/01/12 00:21:21;;;;;;;9.43;2.25;;;;;;;-149.78;100.00;50596.63;5072493;28;20047;-65
2022/01/12 00:23:47;;;;;;;15.35;2.28;;;;;;;-149.78;100.00;50577.06;5072634;28;20037;-64
2022/01/12 00:34:30;;;;;;;15.52;2.28;;;;;;;-149.78;100.00;50584.88;5072443;28;20047;-64
2022/01/12 00:36:56;;;;;;;9.27;1.98;;;;;;;-149.78;100.00;50573.16;5073112;28;20475;-64
2022/01/12 00:39:22;;;;;;;8.20;2.13;;;;;;;-149.78;100.00;50614.22;5055229;28;20040;-65
2022/01/12 00:41:48;;;;;;;14.18;2.72;;;;;;;-149.78;100.00;50557.50;5072602;28;20395;-64
2022/01/12 00:44:31;;;;;;;12.13;2.38;;;;;;;-149.78;100.00;50541.84;5072757;28;20187;-65
2022/01/12 00:46:58;;;;;;;11.13;2.58;;;;;;;-149.78;100.00;50545.75;5056447;28;20049;-65
2022/01/12 00:49:24;;;;;;;16.83;2.95;;;;;;;-149.78;100.00;50608.34;5072109;28;20067;-65
2022/01/12 00:51:54;;;;;;;18.80;2.72;;;;;;;-149.78;100.00;50541.84;5072570;28;20041;-65
2022/01/12 00:54:21;;;;;;;11.48;2.40;;;;;;;-149.78;100.00;50580.97;5072699;28;20033;-65
2022/01/12 00:56:46;;;;;;;14.48;1.90;;;;;;;-149.78;100.00;50553.59;5072872;28;20503;-65
2022/01/12 00:59:13;;;;;;;10.98;2.78;;;;;;;-149.78;100.00;50579.00;5072600;28;20064;-65
2022/01/12 01:01:39;;;;;;;13.00;2.90;;;;;;;-149.78;100.00;50624.00;5054963;28;20037;-65
2022/01/12 01:04:04;;;;;;;19.55;3.45;;;;;;;-149.78;100.00;50584.88;5072680;28;20032;-64
2022/01/12 01:06:35;;;;;;;20.00;3.25;;;;;;;-149.78;100.00;50600.53;5072653;28;20075;-64
2022/01/12 01:09:01;;;;;;;14.02;1.83;;;;;;;-149.78;100.00;50557.50;5054876;28;20534;-64
2022/01/12 01:11:27;;;;;;;15.30;2.40;;;;;;;-149.78;100.00;50600.53;5054872;28;20044;-64
2022/01/12 01:14:00;;;;;;;15.50;2.85;;;;;;;-149.78;100.00;50584.88;5072661;28;20040;-65
2022/01/12 01:16:46;;;;;;;10.13;2.40;;;;;;;-149.78;100.00;50580.97;5072711;28;20125;-65
2022/01/12 01:27:26;;;;;;;20.27;2.83;;;;;;;-149.78;100.00;50565.31;5072219;28;20041;-64
2022/01/12 01:29:54;;;;;;;13.68;3.28;;;;;;;-149.78;100.00;50557.50;5072493;28;20083;-65
2022/01/12 01:32:20;;;;;;;17.17;2.28;;;;;;;-149.78;100.00;50588.78;5075012;28;20033;-65
2022/01/12 01:34:48;;;;;;;9.40;2.83;;;;;;;-149.78;100.00;50608.34;5075863;28;20033;-65
2022/01/12 01:37:14;;;;;;;8.90;2.22;;;;;;;-149.78;100.00;50606.41;5076111;28;20037;-65
2022/01/12 01:39:40;;;;;;;12.57;2.35;;;;;;;-149.78;100.00;50565.31;5075929;28;20040;-65
2022/01/12 01:42:16;;;;;;;16.60;2.25;;;;;;;-149.78;100.00;50569.22;5075799;28;20036;-65
2022/01/12 01:55:28;;;;;;;7.75;1.80;;;;;;;-149.78;100.00;50573.16;5075538;28;20078;-65
2022/01/12 01:57:54;;;;;;;11.02;2.25;;;;;;;-149.78;100.00;50569.22;5075397;28;20036;-65
2022/01/12 02:00:23;;;;;;;12.00;2.10;;;;;;;-149.78;100.00;50598.56;5075482;28;20036;-65
2022/01/12 02:02:51;;;;;;;10.15;2.10;;;;;;;-149.78;100.00;50580.97;5075330;28;20046;-64
2022/01/12 02:05:16;;;;;;;14.68;2.10;;;;;;;-149.78;100.00;50553.59;5075539;28;20067;-65
2022/01/12 02:07:43;;;;;;;18.92;2.00;;;;;;;-149.78;100.00;50557.50;5075291;28;20590;-64
2022/01/12 02:10:09;;;;;;;12.27;1.98;;;;;;;-149.78;100.00;50600.53;5075384;28;20036;-65
2022/01/12 02:12:36;;;;;;;7.88;1.70;;;;;;;-149.78;100.00;50580.97;5057452;28;20111;-65
2022/01/12 02:15:03;;;;;;;10.63;1.73;;;;;;;-149.78;100.00;50532.06;5057306;28;20071;-65
2022/01/12 02:17:38;;;;;;;14.52;2.55;;;;;;;-149.78;100.00;50577.06;5057239;28;20459;-65
2022/01/12 02:35:07;;;;;;;9.40;1.83;;;;;;;-149.78;100.00;50584.88;5075067;28;20082;-65
2022/01/12 02:36:59;;;;;;;10.00;1.92;;;;;;;-149.78;100.00;50553.59;5074028;28;20051;-65
2022/01/12 02:42:29;;;;;;;10.85;1.70;;;;;;;-149.78;100.00;50539.91;5011630;28;20038;-69
2022/01/12 02:50:55;;;;;;;10.00;2.00;;;;;;;-149.78;100.00;50528.16;5074435;28;20041;-65
2022/01/12 02:53:41;;;;;;;14.10;2.55;;;;;;;-149.78;100.00;50545.75;5054706;28;20123;-69
2022/01/12 02:56:16;;;;;;;14.63;2.42;;;;;;;-149.78;100.00;50553.59;5054633;28;20072;-65
2022/01/12 02:58:43;;;;;;;11.23;2.10;;;;;;;-149.78;100.00;50553.59;5054649;28;20045;-65
2022/01/12 03:03:57;;;;;;;8.07;2.42;;;;;;;-149.78;100.00;50553.59;5074467;28;20047;-65
2022/01/12 03:06:29;;;;;;;10.73;1.92;;;;;;;-149.78;100.00;50573.16;5057036;28;20086;-69
2022/01/12 03:08:56;;;;;;;13.23;2.45;;;;;;;-149.78;100.00;50584.88;5074729;28;20059;-69
2022/01/12 03:11:23;;;;;;;9.85;2.35;;;;;;;-149.78;100.00;50584.88;5056669;28;20033;-69
2022/01/12 03:13:50;;;;;;;8.18;2.00;;;;;;;-149.78;100.00;50577.06;5056502;28;20446;-65
2022/01/12 03:16:18;;;;;;;7.88;1.63;;;;;;;-149.78;100.00;50565.31;5074280;28;20029;-65
2022/01/12 03:18:46;;;;;;;7.25;1.92;;;;;;;-149.78;100.00;50557.50;5073936;28;20095;-65
2022/01/12 03:21:12;;;;;;;9.48;2.20;;;;;;;-149.78;100.00;50606.41;5073770;28;20044;-69
2022/01/12 03:23:39;;;;;;;8.48;1.95;;;;;;;-149.78;100.00;50577.06;5073997;28;20048;-65
2022/01/12 03:26:08;;;;;;;9.25;1.90;;;;;;;-149.78;100.00;50600.53;5056162;28;20089;-65
2022/01/12 03:28:34;;;;;;;11.15;2.33;;;;;;;-149.78;100.00;50563.38;5073898;28;20041;-65
2022/01/12 03:31:10;;;;;;;11.02;1.90;;;;;;;-149.78;100.00;50579.00;5073957;28;20039;-69
2022/01/12 03:33:51;;;;;;;11.57;2.58;;;;;;;-149.78;100.00;50596.63;5073888;28;20036;-69
2022/01/12 03:39:05;;;;;;;16.10;2.22;;;;;;;-149.78;100.00;50537.94;5054053;28;20068;-69
2022/01/12 03:41:34;;;;;;;23.63;2.58;;;;;;;-149.78;100.00;50573.16;5053935;28;20109;-69
2022/01/12 03:44:01;;;;;;;10.88;1.98;;;;;;;-149.78;100.00;50608.34;5053797;28;20064;-69
2022/01/12 03:46:31;;;;;;;8.63;2.28;;;;;;;-149.78;100.00;50577.06;5053686;28;20150;-69
2022/01/12 03:48:57;;;;;;;13.02;2.20;;;;;;;-149.78;100.00;50551.63;5053911;28;20087;-69
2022/01/12 03:51:22;;;;;;;8.55;2.35;;;;;;;-149.78;100.00;50608.34;5059962;28;20033;-69
2022/01/12 03:53:51;;;;;;;10.10;2.50;;;;;;;-149.78;100.00;50608.34;5072940;28;20123;-69
2022/01/12 03:56:20;;;;;;;4.25;1.75;;;;;;;-149.78;100.00;50579.00;5056255;28;20471;-69
2022/01/12 03:58:45;;;;;;;10.13;2.17;;;;;;;-149.78;100.00;50522.28;5071039;28;20148;-69
2022/01/12 04:01:11;;;;;;;8.85;1.90;;;;;;;-149.78;100.00;50612.25;5055651;28;20081;-69
2022/01/12 04:03:44;;;;;;;10.90;1.95;;;;;;;-149.78;100.00;50573.16;5073397;28;20087;-69
2022/01/12 04:08:54;;;;;;;9.57;2.50;;;;;;;-149.78;100.00;50549.69;5073453;28;20048;-69
2022/01/12 04:11:19;;;;;;;13.13;1.95;;;;;;;-149.78;100.00;50604.44;5073256;28;20065;-69
2022/01/12 04:13:49;;;;;;;9.52;2.40;;;;;;;-149.78;100.00;50577.06;5073533;28;20352;-69
2022/01/12 04:16:16;;;;;;;9.60;2.42;;;;;;;-149.78;100.00;50545.75;5073251;28;20097;-69
2022/01/12 04:18:42;;;;;;;13.10;2.55;;;;;;;-149.78;100.00;50555.53;5073389;28;20098;-69
2022/01/12 04:21:12;;;;;;;14.27;2.40;;;;;;;-149.78;100.00;50545.75;5073083;28;20028;-69
2022/01/12 04:23:38;;;;;;;9.68;2.05;;;;;;;-149.78;100.00;50561.41;5038655;28;20749;-69
2022/01/12 04:26:09;;;;;;;15.07;2.72;;;;;;;-149.78;100.00;50561.41;5073202;28;20040;-69
2022/01/12 04:28:38;;;;;;;20.92;2.83;;;;;;;-149.78;100.00;50579.00;5073082;28;20051;-69
2022/01/12 04:31:04;;;;;;;8.80;2.42;;;;;;;-149.78;100.00;50577.06;5073204;28;20029;-69
2022/01/12 04:33:31;;;;;;;19.70;4.10;;;;;;;-149.78;100.00;50565.31;5072963;28;20044;-69
2022/01/12 04:35:57;;;;;;;11.88;2.08;;;;;;;-149.78;100.00;50577.06;5073154;28;20048;-69
2022/01/12 04:38:26;;;;;;;6.93;2.00;;;;;;;-149.78;100.00;50582.94;5052878;28;20036;-69
2022/01/12 04:40:52;;;;;;;12.13;2.17;;;;;;;-149.78;100.00;50622.03;5073018;28;20040;-69
2022/01/12 04:43:19;;;;;;;8.60;2.00;;;;;;;-149.78;100.00;50580.97;5072838;28;20048;-69
2022/01/12 04:48:33;;;;;;;14.50;2.65;;;;;;;-149.78;100.00;50561.41;5053961;28;20124;-69
2022/01/12 04:50:59;;;;;;;8.37;2.47;;;;;;;-149.78;100.00;50565.31;5055964;28;20025;-69
2022/01/12 04:53:25;;;;;;;6.60;2.05;;;;;;;-149.78;100.00;50584.88;5073028;28;20543;-69
2022/01/12 04:55:52;;;;;;;9.80;2.65;;;;;;;-149.78;100.00;50600.53;5072803;28;20040;-69
2022/01/12 04:58:18;;;;;;;10.75;2.30;;;;;;;-149.78;100.00;50579.00;5072240;28;20117;-69
2022/01/12 05:00:46;;;;;;;11.57;2.63;;;;;;;-149.78;100.00;50532.06;5072400;28;20033;-69
2022/01/12 05:13:52;;;;;;;11.32;3.00;;;;;;;-149.78;100.00;50600.53;5075184;28;20395;-69
2022/01/12 05:16:19;;;;;;;7.82;2.70;;;;;;;-149.78;100.00;50571.19;5075810;28;20032;-65
2022/01/12 05:18:47;;;;;;;19.48;3.25;;;;;;;-149.78;100.00;50592.72;5076073;28;20391;-65
2022/01/12 05:21:14;;;;;;;11.68;2.92;;;;;;;-149.78;100.00;50580.97;5075830;28;20395;-69
2022/01/12 05:23:40;;;;;;;11.70;2.88;;;;;;;-149.78;100.00;50592.72;5075946;28;20032;-65
2022/01/12 05:26:07;;;;;;;11.50;2.25;;;;;;;-149.78;100.00;50547.72;5075811;28;20035;-69
2022/01/12 05:28:33;;;;;;;8.80;2.40;;;;;;;-149.78;100.00;50592.72;5075145;28;20044;-65
2022/01/12 05:31:00;;;;;;;9.32;2.65;;;;;;;-149.78;100.00;50553.59;5072752;28;20036;-65
2022/01/12 05:33:27;;;;;;;15.25;2.80;;;;;;;-149.78;100.00;50551.63;5075342;28;20112;-65
2022/01/12 05:35:55;;;;;;;13.73;2.55;;;;;;;-149.78;100.00;50565.31;5076170;28;20065;-69
2022/01/12 05:38:21;;;;;;;11.10;2.42;;;;;;;-149.78;100.00;50537.94;5058188;28;20099;-69
2022/01/12 05:40:55;;;;;;;10.63;2.60;;;;;;;-149.78;100.00;50573.16;5076179;28;20059;-69
2022/01/12 05:43:24;;;;;;;17.63;2.65;;;;;;;-149.78;100.00;50557.50;5075752;28;20047;-69
2022/01/12 05:45:52;;;;;;;9.48;3.13;;;;;;;-149.78;100.00;50561.41;5075602;28;20028;-69
2022/01/12 05:50:46;;;;;;;13.90;4.13;;;;;;;-149.78;100.00;50588.78;5075714;28;20032;-65
2022/01/12 05:53:13;;;;;;;16.77;3.85;;;;;;;-149.78;100.00;50579.00;5075483;28;20509;-69
2022/01/12 05:55:38;;;;;;;11.40;3.15;;;;;;;-149.78;100.00;50624.00;5075795;28;20032;-65
2022/01/12 05:58:04;;;;;;;17.13;4.10;;;;;;;-149.78;100.00;50588.78;5075754;28;20086;-69
2022/01/12 06:00:30;;;;;;;13.68;3.50;;;;;;;-149.78;100.00;50571.19;5075303;28;20048;-65
2022/01/12 06:02:56;;;;;;;11.82;3.30;;;;;;;-149.78;100.00;50545.75;5057565;28;20040;-65
2022/01/12 06:05:23;;;;;;;12.82;3.72;;;;;;;-149.78;100.00;50549.69;5075115;28;20060;-65
2022/01/12 06:07:50;;;;;;;19.67;4.57;;;;;;;-149.78;100.00;50537.94;5075298;28;20035;-69
2022/01/12 06:10:22;;;;;;;20.50;4.60;;;;;;;-149.78;100.00;50573.16;5075630;28;20029;-69
2022/01/12 06:12:48;;;;;;;13.25;4.82;;;;;;;-149.78;100.00;50580.97;5075554;28;20086;-69
2022/01/12 06:15:14;;;;;;;19.23;4.82;;;;;;;-149.78;100.00;50565.31;5057237;28;20391;-69
2022/01/12 06:17:40;;;;;;;14.75;4.80;;;;;;;-149.78;100.00;50577.06;5074776;28;20039;-69
2022/01/12 06:20:08;;;;;;;16.17;4.13;;;;;;;-149.78;100.00;50547.72;5074907;28;20450;-69
2022/01/12 06:22:35;;;;;;;20.92;4.82;;;;;;;-149.78;100.00;50522.28;5057134;28;20040;-70
2022/01/12 06:25:02;;;;;;;13.68;4.43;;;;;;;-149.78;100.00;50596.63;5074783;28;20040;-69
2022/01/12 06:27:30;;;;;;;15.30;4.15;;;;;;;-149.78;100.00;50534.03;5074588;28;20044;-69
2022/01/12 06:31:10;;;;;;;14.88;4.30;;;;;;;-149.78;100.00;50565.31;5075030;28;20094;-69
2022/01/12 06:33:00;;;;;;;13.95;2.85;;;;;;;-149.78;100.00;50577.06;5074749;28;20037;-69
2022/01/12 06:35:26;;;;;;;19.95;3.58;;;;;;;-149.78;100.00;50545.75;5074716;28;20043;-69
2022/01/12 06:37:53;;;;;;;12.60;3.05;;;;;;;-149.78;100.00;50569.22;5074838;28;20501;-69
2022/01/12 06:40:20;;;;;;;21.73;3.35;;;;;;;-149.78;100.00;50596.63;5074804;28;20033;-69
2022/01/12 06:42:46;;;;;;;19.38;3.28;;;;;;;-149.78;100.00;50577.06;5056963;28;20036;-70
2022/01/12 06:45:12;;;;;;;16.45;3.55;;;;;;;-149.78;100.00;50561.41;5074701;28;20040;-69
2022/01/12 06:47:38;;;;;;;15.52;3.80;;;;;;;-149.78;100.00;50580.97;5074373;28;20037;-70
2022/01/12 06:50:05;;;;;;;16.90;3.65;;;;;;;-149.78;100.00;50573.16;5056935;28;20036;-70
2022/01/12 06:52:32;;;;;;;15.30;3.10;;;;;;;-149.78;100.00;50559.47;5040062;28;20045;-70
2022/01/12 06:54:58;;;;;;;11.93;2.33;;;;;;;-149.78;100.00;50577.06;5052637;28;20032;-70
2022/01/12 06:57:23;;;;;;;12.10;2.60;;;;;;;-149.78;100.00;50543.81;5061205;28;20040;-70
2022/01/12 06:59:49;;;;;;;11.50;2.08;;;;;;;-149.78;100.00;50547.72;5066362;28;20090;-65
2022/01/12 07:02:16;;;;;;;11.90;2.55;;;;;;;-149.78;100.00;50557.50;5069899;28;20476;-65
2022/01/12 07:04:41;;;;;;;8.88;2.45;;;;;;;-149.78;100.00;50553.59;5059441;28;20041;-65
2022/01/12 07:07:07;;;;;;;12.35;2.97;;;;;;;-149.78;100.00;50582.94;5070199;28;20476;-65
2022/01/12 07:09:32;;;;;;;12.50;2.50;;;;;;;-149.78;100.00;50545.75;5068611;28;20051;-65
2022/01/12 07:11:58;;;;;;;9.93;2.40;;;;;;;-149.78;100.00;50530.13;5072705;28;20036;-65
2022/01/12 07:14:23;;;;;;;10.48;2.78;;;;;;;-149.78;100.00;50573.16;5052164;28;20063;-65
2022/01/12 07:16:49;;;;;;;11.80;3.05;;;;;;;-149.78;100.00;50555.53;5071509;28;20422;-65
2022/01/12 07:19:15;;;;;;;8.52;2.08;;;;;;;-149.78;100.00;50520.34;5067281;28;20523;-64
2022/01/12 07:21:41;;;;;;;13.40;2.30;;;;;;;-149.78;100.00;50532.06;5072293;28;20029;-65
2022/01/12 07:24:07;;;;;;;14.18;2.15;;;;;;;-149.78;100.00;50573.16;5054142;28;20079;-70
2022/01/12 07:26:33;;;;;;;12.68;2.35;;;;;;;-149.78;100.00;50537.94;5060094;28;20037;-63
2022/01/12 07:28:59;;;;;;;11.45;2.20;;;;;;;-149.78;100.00;50549.69;5072468;28;20114;-65
2022/01/12 07:31:25;;;;;;;12.48;2.50;;;;;;;-149.78;100.00;50535.97;5066356;28;20460;-66
2022/01/12 07:33:50;;;;;;;11.38;2.00;;;;;;;-149.78;100.00;50588.78;5053901;28;20041;-71
2022/01/12 07:36:17;;;;;;;13.45;2.42;;;;;;;-149.78;100.00;50573.16;5058421;28;20094;-65
2022/01/12 07:38:43;;;;;;;10.15;2.47;;;;;;;-149.78;100.00;50553.59;5064782;28;20028;-64
2022/01/12 07:41:09;;;;;;;8.45;2.30;;;;;;;-149.78;100.00;50561.41;5069964;28;20032;-64
2022/01/12 07:43:34;;;;;;;14.13;2.70;;;;;;;-149.78;100.00;50557.50;5073470;28;20396;-65
2022/01/12 07:46:00;;;;;;;11.45;2.55;;;;;;;-149.78;100.00;50549.69;5073250;28;20089;-64
2022/01/12 07:48:26;;;;;;;14.10;2.58;;;;;;;-149.78;100.00;50534.03;5073336;28;20425;-64
2022/01/12 07:50:51;;;;;;;13.05;2.25;;;;;;;-149.78;100.00;50530.13;5059410;28;20044;-63
2022/01/12 07:53:17;;;;;;;11.52;2.30;;;;;;;-149.78;100.00;50547.72;5073346;28;20813;-62
2022/01/12 07:55:42;;;;;;;6.88;2.10;;;;;;;-149.78;100.00;50573.16;5073327;28;20491;-62
2022/01/12 07:58:08;;;;;;;11.90;2.45;;;;;;;-149.78;100.00;50541.84;5069288;28;20115;-67
2022/01/12 08:00:35;;;;;;;13.63;2.40;;;;;;;-149.78;100.00;50592.72;5069450;28;20035;-63
2022/01/12 08:03:00;;;;;;;12.50;2.50;;;;;;;-149.78;100.00;50524.25;5073033;28;20047;-67
2022/01/12 08:05:26;;;;;;;9.05;2.00;;;;;;;-149.78;100.00;50559.47;5072884;28;20040;-67
2022/01/12 08:07:54;;;;;;;18.50;2.65;;;;;;;-149.78;100.00;50549.69;5038683;28;20040;-62
2022/01/12 08:10:20;;;;;;;10.45;2.58;;;;;;;-149.78;100.00;50557.50;5072978;28;20032;-67
2022/01/12 08:12:46;;;;;;;8.13;1.90;;;;;;;-149.78;100.00;50553.59;5069366;28;20036;-63
2022/01/12 08:15:12;;;;;;;12.95;2.63;;;;;;;-149.78;100.00;50557.50;5059945;28;20083;-67
2022/01/12 08:17:38;;;;;;;11.13;2.13;;;;;;;-149.78;100.00;50549.69;5056269;28;20037;-63
2022/01/12 08:20:11;;;;;;;16.55;3.05;;;;;;;-149.78;100.00;50596.63;5042167;28;20055;-63
2022/01/12 08:22:37;;;;;;;15.80;3.00;;;;;;;-149.78;100.00;50524.25;5060801;28;20573;-67
2022/01/12 08:25:04;;;;;;;12.07;2.33;;;;;;;-149.78;100.00;50580.97;5038432;28;20070;-63
2022/01/12 08:27:30;;;;;;;9.70;2.28;;;;;;;-149.78;100.00;50563.38;5058100;28;20040;-66
2022/01/12 08:30:00;;;;;;;13.93;2.58;;;;;;;-149.78;100.00;50557.50;5041174;28;20549;-66
2022/01/12 08:32:28;;;;;;;14.50;3.28;;;;;;;-149.78;100.00;50553.59;5061006;28;20037;-63
2022/01/12 08:34:55;;;;;;;8.68;2.35;;;;;;;-149.78;100.00;50522.28;5053829;28;20043;-66
2022/01/12 08:37:22;;;;;;;9.15;2.40;;;;;;;-149.78;100.00;50537.94;5070846;28;20098;-67
2022/01/12 08:39:48;;;;;;;8.10;2.60;;;;;;;-149.78;100.00;50580.97;5052156;28;20027;-67
2022/01/12 08:42:13;;;;;;;8.32;2.33;;;;;;;-149.78;100.00;50553.59;5071025;28;20157;-67
2022/01/12 08:44:39;;;;;;;10.50;2.67;;;;;;;-149.78;100.00;50534.03;5054878;28;20028;-67
2022/01/12 08:47:05;;;;;;;13.77;2.10;;;;;;;-149.78;100.00;50537.94;5072498;28;20128;-67
2022/01/12 08:49:30;;;;;;;11.18;2.33;;;;;;;-149.78;100.00;50569.22;5072725;28;20036;-67
2022/01/12 08:51:56;;;;;;;17.67;2.72;;;;;;;-149.78;100.00;50545.75;5072721;28;20081;-67
2022/01/12 08:54:22;;;;;;;8.07;1.83;;;;;;;-149.78;100.00;50539.91;5054671;28;20045;-67
2022/01/12 08:56:48;;;;;;;13.35;1.90;;;;;;;-149.78;100.00;50565.31;5073007;28;20032;-68
2022/01/12 08:59:14;;;;;;;13.00;2.15;;;;;;;-149.78;100.00;50520.34;5071777;28;20021;-67
2022/01/12 09:01:40;;;;;;;6.57;1.50;;;;;;;-149.78;100.00;50588.78;5071782;28;20067;-67
2022/01/12 09:04:05;;;;;;;6.82;1.70;;;;;;;-149.78;100.00;50584.88;5052909;28;20078;-67
2022/01/12 09:06:31;;;;;;;7.05;1.75;;;;;;;-149.78;100.00;50553.59;5068471;28;20438;-67
2022/01/12 09:08:57;;;;;;;5.72;1.65;;;;;;;-149.78;100.00;50561.41;5072440;28;20364;-67
2022/01/12 09:11:23;;;;;;;9.50;1.50;;;;;;;-149.78;100.00;50498.81;5063791;28;20060;-68
2022/01/12 09:13:48;;;;;;;11.38;2.10;;;;;;;-149.78;100.00;50545.75;5072625;28;20032;-63
2022/01/12 09:16:14;;;;;;;9.23;1.50;;;;;;;-149.78;100.00;50524.25;5069221;28;20114;-63
2022/01/12 09:18:42;;;;;;;8.48;2.05;;;;;;;-149.78;100.00;50563.38;5066740;28;20032;-63
2022/01/12 09:21:07;;;;;;;14.60;2.08;;;;;;;-149.78;100.00;50530.13;5066880;28;20029;-63
2022/01/12 09:23:34;;;;;;;12.65;1.67;;;;;;;-149.78;100.00;50553.59;5071985;28;20040;-63
2022/01/12 09:26:00;;;;;;;9.75;2.13;;;;;;;-149.78;100.00;50565.31;5069367;28;20039;-63
2022/01/12 09:28:26;;;;;;;9.10;1.80;;;;;;;-149.78;100.00;50535.97;5059775;28;20049;-63
2022/01/12 09:30:52;;;;;;;8.00;1.77;;;;;;;-149.78;100.00;50524.25;5054007;28;20403;-63
2022/01/12 09:33:18;;;;;;;12.05;2.30;;;;;;;-149.78;100.00;50565.31;5072744;28;20470;-63
2022/01/12 09:35:46;;;;;;;10.57;2.13;;;;;;;-149.78;100.00;50530.13;5072612;28;20025;-63
2022/01/12 09:38:12;;;;;;;7.85;1.92;;;;;;;-149.78;100.00;50555.53;5054312;28;20440;-63
2022/01/12 09:40:39;;;;;;;11.85;2.10;;;;;;;-149.78;100.00;50577.06;5072478;28;20119;-63
2022/01/12 09:43:05;;;;;;;5.15;1.80;;;;;;;-149.78;100.00;50545.75;5059427;28;20037;-63
2022/01/12 09:45:32;;;;;;;6.57;2.00;;;;;;;-149.78;100.00;50553.59;5034791;28;20052;-63
2022/01/12 09:47:58;;;;;;;10.40;2.92;;;;;;;-149.78;100.00;50530.13;5053940;28;20061;-64
2022/01/12 09:50:25;;;;;;;14.23;3.45;;;;;;;-149.78;100.00;50555.53;5065865;28;20046;-64
2022/01/12 09:52:52;;;;;;;14.77;3.92;;;;;;;-149.78;100.00;50502.75;5074347;28;20064;-64
2022/01/12 09:55:19;;;;;;;10.23;2.47;;;;;;;-149.78;100.00;50553.59;5075795;28;20115;-68
2022/01/12 09:57:45;;;;;;;14.02;3.05;;;;;;;-149.78;100.00;50571.19;5075779;28;20071;-63
2022/01/12 10:00:13;;;;;;;10.07;2.15;;;;;;;-149.78;100.00;50494.91;5075303;28;20115;-63
2022/01/12 10:02:41;;;;;;;11.55;2.75;;;;;;;-149.78;100.00;50571.19;5075389;28;20048;-63
2022/01/12 10:05:10;;;;;;;11.10;2.10;;;;;;;-149.78;100.00;50530.13;5075360;28;20037;-63
2022/01/12 10:07:36;;;;;;;9.95;2.25;;;;;;;-149.78;100.00;50573.16;5057739;28;20568;-63
2022/01/12 10:10:06;;;;;;;7.85;2.15;;;;;;;-149.78;100.00;50522.28;5075269;28;20024;-64
2022/01/12 10:12:33;;;;;;;6.05;2.15;;;;;;;-149.78;100.00;50537.94;5075074;28;20043;-64
2022/01/12 10:15:03;;;;;;;9.27;2.53;;;;;;;-149.78;100.00;50506.66;5062954;28;20036;-63
2022/01/12 10:17:39;;;;;;;9.15;1.90;;;;;;;-149.78;100.00;50506.66;5067277;28;20027;-66
2022/01/12 10:20:06;;;;;;;9.18;2.40;;;;;;;-149.78;100.00;50526.22;5071070;28;20037;-67
2022/01/12 10:22:32;;;;;;;7.78;2.10;;;;;;;-149.78;100.00;50502.75;5074749;28;20082;-67
2022/01/12 10:25:01;;;;;;;6.90;1.98;;;;;;;-149.78;100.00;50532.06;5073725;28;20048;-67
2022/01/12 10:27:29;;;;;;;12.75;2.88;;;;;;;-149.78;100.00;50526.22;5075222;28;20091;-67
2022/01/12 10:30:01;;;;;;;7.28;2.20;;;;;;;-149.78;100.00;50551.63;5057033;28;20063;-63
2022/01/12 10:32:27;;;;;;;15.95;3.40;;;;;;;-149.78;100.00;50510.56;5070360;28;20028;-66
2022/01/12 10:34:52;;;;;;;8.63;2.30;;;;;;;-149.78;100.00;50553.59;5067772;28;20039;-63
2022/01/12 10:37:22;;;;;;;15.95;5.15;;;;;;;-149.78;100.00;50537.94;5056868;28;20043;-63
2022/01/12 10:39:52;;;;;;;11.95;3.17;;;;;;;-149.78;100.00;50537.94;5070845;28;20376;-67
2022/01/12 10:42:24;;;;;;;7.63;2.92;;;;;;;-149.78;100.00;50530.13;5071150;28;20146;-63
2022/01/12 10:44:55;;;;;;;11.73;2.50;;;;;;;-149.78;100.00;50475.34;5073819;28;20028;-66
2022/01/12 10:47:32;;;;;;;13.63;3.05;;;;;;;-149.78;100.00;50530.13;5073635;28;20536;-67
2022/01/12 10:50:00;;;;;;;8.93;2.50;;;;;;;-149.78;100.00;50498.81;5074581;28;20085;-63
2022/01/12 10:52:34;;;;;;;5.60;2.35;;;;;;;-149.78;100.00;50557.50;5074286;28;20384;-67
2022/01/12 10:55:04;;;;;;;9.98;2.25;;;;;;;-149.78;100.00;50526.22;5056465;28;20125;-63
2022/01/12 10:57:34;;;;;;;12.85;2.35;;;;;;;-149.78;100.00;50508.59;5074505;28;20029;-66
2022/01/12 11:00:33;;;;;;;9.05;2.45;;;;;;;-149.78;100.00;50498.81;5074595;28;20040;-63
2022/01/12 11:02:59;;;;;;;15.20;3.58;;;;;;;-149.78;100.00;50524.25;5073957;28;20483;-63
2022/01/12 11:05:27;;;;;;;9.52;2.20;;;;;;;-149.78;100.00;50530.13;5074400;28;20036;-63
2022/01/12 11:07:53;;;;;;;12.32;2.30;;;;;;;-149.78;100.00;50510.56;5074483;28;20531;-63
2022/01/12 11:10:21;;;;;;;15.32;2.80;;;;;;;-149.78;100.00;50518.38;5074456;28;20036;-63
2022/01/12 11:12:49;;;;;;;11.20;2.85;;;;;;;-149.78;100.00;50502.75;5074272;28;20028;-63
2022/01/12 11:15:17;;;;;;;13.13;2.65;;;;;;;-149.78;100.00;50506.66;5056392;28;20383;-67
2022/01/12 11:17:44;;;;;;;7.00;2.65;;;;;;;-149.78;100.00;50494.91;5074208;28;20051;-63
2022/01/12 11:20:17;;;;;;;8.35;2.30;;;;;;;-149.78;100.00;50496.88;5074287;28;20040;-63
2022/01/12 11:22:43;;;;;;;9.07;2.08;;;;;;;-149.78;100.00;50491.00;5074262;28;20111;-63
2022/01/12 11:25:27;;;;;;;11.25;2.30;;;;;;;-149.78;100.00;50518.38;5074129;28;20112;-63
2022/01/12 11:28:14;;;;;;;8.50;1.90;;;;;;;-149.78;100.00;50508.59;5073786;28;20468;-63
2022/01/12 11:30:43;;;;;;;10.85;2.22;;;;;;;-149.78;100.00;50537.94;5063692;28;20028;-63
2022/01/12 11:33:11;;;;;;;8.43;2.00;;;;;;;-149.78;100.00;50510.56;5069675;28;20063;-63
2022/01/12 11:35:44;;;;;;;9.40;2.17;;;;;;;-149.78;100.00;50498.81;5073813;28;20052;-67
2022/01/12 11:38:21;;;;;;;17.42;2.15;;;;;;;-149.78;100.00;50498.81;5073726;28;20028;-64
2022/01/12 11:40:47;;;;;;;10.15;2.08;;;;;;;-149.78;100.00;50514.47;5073199;28;20043;-64
2022/01/12 11:43:31;;;;;;;4.63;1.80;;;;;;;-149.78;100.00;50506.66;5043720;28;20035;-67
2022/01/12 11:46:08;;;;;;;13.38;2.50;;;;;;;-149.78;100.00;50494.91;5063611;28;20488;-67
2022/01/12 11:48:46;;;;;;;9.32;2.08;;;;;;;-149.78;100.00;50506.66;5073716;28;20464;-67
2022/01/12 11:51:15;;;;;;;15.70;2.63;;;;;;;-149.78;100.00;50504.69;5058560;28;20052;-64
2022/01/12 11:53:54;;;;;;;5.95;1.95;;;;;;;-149.78;100.00;50494.91;5073626;28;20491;-63
2022/01/12 11:56:22;;;;;;;6.20;2.20;;;;;;;-149.78;100.00;50526.22;5073579;28;20040;-64
2022/01/12 11:58:55;;;;;;;11.35;2.40;;;;;;;-149.78;100.00;50487.09;5073536;28;20040;-64
2022/01/12 12:01:24;;;;;;;7.60;2.22;;;;;;;-149.78;100.00;50471.44;5066588;28;20033;-64
2022/01/12 12:04:01;;;;;;;9.50;2.85;;;;;;;-149.78;100.00;50506.66;5048702;28;20032;-64
2022/01/12 12:06:28;;;;;;;8.80;2.47;;;;;;;-149.78;100.00;50491.00;5073340;28;20099;-64
2022/01/12 12:09:05;;;;;;;9.40;2.00;;;;;;;-149.78;100.00;50522.28;5073453;28;20028;-64
2022/01/12 12:11:32;;;;;;;10.65;2.33;;;;;;;-149.78;100.00;50510.56;5064981;28;20029;-64
2022/01/12 12:14:08;;;;;;;9.43;2.28;;;;;;;-149.78;100.00;50510.56;5047832;28;20037;-64
2022/01/12 12:16:36;;;;;;;10.30;2.40;;;;;;;-149.78;100.00;50508.59;5072902;28;20503;-64
2022/01/12 12:19:05;;;;;;;6.63;2.13;;;;;;;-149.78;100.00;50504.69;5072476;28;20024;-64
2022/01/12 12:21:32;;;;;;;5.53;2.10;;;;;;;-149.78;100.00;50491.00;5072834;28;20081;-64
2022/01/12 12:24:12;;;;;;;5.85;1.98;;;;;;;-149.78;100.00;50526.22;5038881;28;20071;-64